Contact Us:
Email: info@sawbill.com
Phone: (218)663-7150
Fax: (218)663-7980
Mail: 4620 Sawbill Trail
Box 2129
Tofte, MN 55615


Powered by
Movable Type 3.15
 
Sawbill Weather History Archives: December 2013
Current Sawbill Weather History | « November 2013 | January 2014 »


Date

High
Temperature

Low
Temperature

Barometric
Pressure

Relative
Humidity 7AM

9 AM
Temperature

Moisture

Snow

12/31/13 -14 -24 30.30 77% -21 0
12/30/13 -6 -24 30.06 77% -23 0
12/29/13 -9 -24 30.10 77% -21 0
12/28/13 28 -16 30.12 77% -16 .14" 1.5"
12/27/13 28 12 29.94 95% 26 0
12/26/13 -11 -12 30.01 66% 12 0
12/25/13 12 -12 30.06 66% -10 Trace Trace
12/24/13 11 2 30.02 66% 7 .11" 1.5"
12/23/13 2 -16 30.24 66% 2 Trace Trace
12/22/13 3 -12 30.22 66% -8 .11" 1"
12/21/13 17 0 30.03 66% 0 .09" 2"
12/20/13 15 -7 30.00 71% 12 .02" .2"
12/19/13 6 -9 30.06 74% -8 .05" .5"
12/18/13 15 -4 30.04 74% -1 .03" .3"
12/17/13 16 -6 29.92 72% 12 .05" .5"
12/16/13 12 0 29.86 71% 12 .17" 2.5"
12/15/13 0 -27 30.10 77% -1 0
12/14/13 9 -17 30.02 67% -17 0
12/13/13 -6 -25 29.98 68% -11 0
12/12/13 3 -17 29.92 67% -17 0
12/11/13 -6 -16 30.10 71% -9 0
12/10/13 -2 -16 30.16 71% -16 0
12/9/13 2 -14 29.86 71% -14 Trace Trace
12/8/13 7 -17 29.90 71% -14 .12" 1.5"
12/7/13 -1 -18 30.24 71% -17 0
12/6/13 3 -15 30.22 71% -10 0
12/5/13 11 -7 30.09 71% -6 .06" .5"
12/4/13 21 10 29.74 71% 10 .48" 5"
12/3/13 25 14 30.00 78% 16 .13" 2"
12/2/13 29 23 30.00 80% 25 .4" 6"
12/1/13 25 22 29.98 79% 23 .14" 1"
 


Home I Trip Planning I Rentals and Outfitting I Reservations I Campgrounds I Sawbill Store I Sawbill News I Contact

© 1997 - 2017, Sawbill Canoe Outfitters, Inc. I Privacy Policy